首页
METAR-TAF:

METAR-TAF

机场 :

纽卡斯尔机场

泰恩河畔纽卡斯尔, 英格兰

纬度: 55-02N, 经度: 001-42W, 海拔: 81米

当前天气观测

该预报发布于16分钟前的13:50 UTC
风速22节,风向西转西北,有时为32节阵风
温度 6°C
湿度 70%
气压 1010 hPa
能见度10公里或以上
少量云层高于1000英尺
散云层高于3200英尺

METAR: EGNT 231350Z 29022G32KT 9999 FEW010 SCT032 06/01 Q1010

时间: 14:06 (14:06 UTC)

预报

该预报发布于1小时和29分钟前的12:37 UTC
预报有效从23日的 12点(UTC)到 24日的 12点(UTC)
风速12节,风向西
能见度10公里或以上
散云层高于3000英尺
短暂存在
从 23日的 12点(UTC)到 23日的 13点(UTC)
能見度: 7000
阵雨
短暂存在
从 23日的 12点(UTC)到 23日的 18点(UTC)
风速20节,风向西,有时为32节阵风
成为
从 24日的 00点(UTC)到 24日的 03点(UTC)
风速7节,风向南转南东
成为
从 24日的 03点(UTC)到 24日的 06点(UTC)
能見度: 8000
散云层高于400英尺
阴天层高于1000英尺
小雨
短暂存在
从 24日的 06点(UTC)到 24日的 12点(UTC)
能見度: 4000
阴天层高于400英尺
几率 30% :
短暂存在
从 24日的 06点(UTC)到 24日的 12点(UTC)
能見度: 0800
阴天层高于100英尺
雨, 雪

TAF: EGNT 231237Z 2312/2412 27012KT 9999 SCT030 TEMPO 2312/2313 7000 SHRA TEMPO 2312/2318 28020G32KT BECMG 2400/2403 15007KT BECMG 2403/2406 8000 -RA SCT004 OVC010 TEMPO 2406/2412 4000 RA OVC004 PROB30 TEMPO 2406/2412 0800 RASN OVC001

超过4000个机场的气象观测和天气预报(METAR&TAF报告)。

可查询的气象台以黄色和红色小点在地图上表示。

将鼠标移到小点上方,可查看气象台名称。

然后点击查看天气观测和预报。

如需切换地图:点击带黑十字的绿色按钮放大地图;点击带横线的绿色按钮缩小地图;或者点击绿色箭头查看邻近地区的地图。


METAR-TAF: